createdAt,value
2019-03-20T00:01:29.041Z,2.70
2019-03-20T00:05:33.952Z,2.70
2019-03-20T00:09:44.659Z,2.60
2019-03-20T00:13:49.948Z,2.70
2019-03-20T00:17:54.879Z,2.60
2019-03-20T00:21:59.766Z,2.70
2019-03-20T00:26:10.498Z,2.70
2019-03-20T00:30:15.982Z,2.60
2019-03-20T00:34:20.874Z,2.60
2019-03-20T00:38:30.034Z,2.40
2019-03-20T00:42:35.598Z,2.30
2019-03-20T00:46:40.658Z,2.10
2019-03-20T00:50:45.565Z,2.00
2019-03-20T00:54:50.447Z,1.70
2019-03-20T00:58:56.651Z,1.60
2019-03-20T01:03:01.605Z,1.50
2019-03-20T01:07:06.516Z,1.30
2019-03-20T01:11:12.765Z,1.20
2019-03-20T01:15:25.577Z,1.00
2019-03-20T01:19:30.498Z,0.90
2019-03-20T01:23:35.468Z,0.80
2019-03-20T01:27:40.624Z,0.90
2019-03-20T01:35:56.533Z,1.00
2019-03-20T01:40:01.493Z,1.20
2019-03-20T01:44:06.446Z,1.30
2019-03-20T01:48:11.355Z,1.30
2019-03-20T01:52:16.219Z,1.20
2019-03-20T01:56:34.487Z,1.30
2019-03-20T02:00:39.438Z,1.30
2019-03-20T02:04:47.501Z,1.40
2019-03-20T02:08:52.386Z,1.40
2019-03-20T02:12:58.707Z,1.40
2019-03-20T02:17:10.030Z,1.30
2019-03-20T02:21:14.905Z,1.30
2019-03-20T02:25:19.825Z,1.20
2019-03-20T02:29:37.495Z,1.20
2019-03-20T02:33:42.412Z,1.10
2019-03-20T02:37:47.334Z,1.00
2019-03-20T02:41:52.614Z,0.90
2019-03-20T02:45:57.551Z,0.80
2019-03-20T02:50:02.474Z,0.80
2019-03-20T02:54:07.724Z,0.80
2019-03-20T02:58:12.638Z,0.80
2019-03-20T03:02:17.700Z,0.80
2019-03-20T03:06:28.514Z,0.80
2019-03-20T03:10:33.443Z,0.80
2019-03-20T03:14:38.501Z,0.70
2019-03-20T03:18:43.368Z,0.60
2019-03-20T03:22:48.284Z,0.50
2019-03-20T03:26:55.361Z,0.40
2019-03-20T03:31:00.644Z,0.20
2019-03-20T03:35:06.098Z,0.00
2019-03-20T03:39:18.305Z,-0.10
2019-03-20T03:43:24.490Z,-0.20
2019-03-20T03:47:32.904Z,-0.20
2019-03-20T03:51:38.108Z,-0.20
2019-03-20T03:55:43.007Z,-0.40
2019-03-20T03:59:58.268Z,-0.30
2019-03-20T04:04:03.237Z,-0.40
2019-03-20T04:08:21.449Z,-0.40
2019-03-20T04:12:26.356Z,-0.50
2019-03-20T04:16:31.272Z,-0.60
2019-03-20T04:20:36.186Z,-0.70
2019-03-20T04:24:48.373Z,-0.80
2019-03-20T04:28:53.307Z,-0.80
2019-03-20T04:32:58.439Z,-0.90
2019-03-20T04:37:03.515Z,-0.70
2019-03-20T04:41:08.590Z,-0.80
2019-03-20T04:45:13.676Z,-1.40
2019-03-20T04:49:20.055Z,-1.00
2019-03-20T04:53:24.962Z,-0.90
2019-03-20T04:57:29.854Z,-1.10
2019-03-20T05:01:34.855Z,-1.30
2019-03-20T05:05:40.161Z,-1.30
2019-03-20T05:09:45.114Z,-1.10
2019-03-20T05:13:50.098Z,-1.50
2019-03-20T05:17:55.143Z,-1.20
2019-03-20T05:22:00.026Z,-1.20
2019-03-20T05:26:05.135Z,-1.00
2019-03-20T05:30:11.028Z,-1.30
2019-03-20T05:34:15.914Z,-1.10
2019-03-20T05:38:20.974Z,-1.10
2019-03-20T05:42:25.885Z,-0.90
2019-03-20T05:46:31.002Z,-1.10
2019-03-20T05:50:35.921Z,-0.90
2019-03-20T05:54:42.872Z,-0.80
2019-03-20T05:58:50.557Z,-0.70
2019-03-20T06:02:57.523Z,-0.60
2019-03-20T06:07:06.418Z,-0.70
2019-03-20T06:11:15.060Z,-0.70
2019-03-20T06:15:21.590Z,-0.80
2019-03-20T06:19:27.835Z,-0.60
2019-03-20T06:23:36.246Z,-0.70
2019-03-20T06:27:41.896Z,-0.60
2019-03-20T06:31:49.737Z,-0.30
2019-03-20T06:35:55.222Z,-0.40
2019-03-20T06:40:01.620Z,-0.30
2019-03-20T06:44:09.916Z,-0.20
2019-03-20T06:48:15.957Z,0.00
2019-03-20T06:52:22.245Z,0.20
2019-03-20T06:56:28.733Z,0.50
2019-03-20T07:01:02.075Z,1.10
2019-03-20T07:05:34.243Z,1.70
2019-03-20T07:10:11.596Z,2.50
2019-03-20T07:14:17.071Z,3.20
2019-03-20T07:18:24.191Z,3.80
2019-03-20T07:22:31.264Z,4.40
2019-03-20T07:26:39.219Z,5.10
2019-03-20T07:30:45.962Z,5.30
2019-03-20T07:34:53.645Z,5.60
2019-03-20T07:38:59.680Z,5.90
2019-03-20T07:43:09.363Z,6.10
2019-03-20T07:47:14.859Z,6.30
2019-03-20T07:51:20.083Z,6.50
2019-03-20T07:55:27.452Z,7.00
2019-03-20T07:59:33.627Z,7.40
2019-03-20T08:03:43.344Z,7.50
2019-03-20T08:07:51.093Z,7.50
2019-03-20T08:11:57.782Z,7.30
2019-03-20T08:16:10.342Z,7.00
2019-03-20T08:20:16.392Z,6.90
2019-03-20T08:24:22.860Z,7.30
2019-03-20T08:28:30.303Z,7.20
2019-03-20T08:32:38.701Z,7.60
2019-03-20T08:36:43.630Z,7.80
2019-03-20T08:40:51.898Z,7.70
2019-03-20T08:44:59.061Z,7.50
2019-03-20T08:49:05.494Z,7.70
2019-03-20T08:53:11.423Z,7.90
2019-03-20T08:57:18.301Z,8.50
2019-03-20T09:01:28.483Z,8.40
2019-03-20T09:05:32.725Z,8.90
2019-03-20T09:09:40.558Z,9.00
2019-03-20T09:13:45.560Z,8.90
2019-03-20T09:17:52.729Z,8.60
2019-03-20T09:22:00.673Z,8.30
2019-03-20T09:26:07.488Z,8.40
2019-03-20T09:30:34.192Z,8.70
2019-03-20T09:34:41.049Z,8.90
2019-03-20T09:38:48.134Z,9.00
2019-03-20T09:42:57.736Z,9.50
2019-03-20T09:47:06.803Z,8.80
2019-03-20T09:51:13.753Z,9.00
2019-03-20T09:55:22.167Z,10.00
2019-03-20T09:59:29.154Z,9.40
2019-03-20T10:03:37.658Z,8.90
2019-03-20T10:07:44.789Z,9.60
2019-03-20T10:11:50.633Z,9.80
2019-03-20T10:15:57.648Z,9.30
2019-03-20T10:20:03.474Z,9.10
2019-03-20T10:24:20.696Z,9.20
2019-03-20T10:28:27.712Z,10.30
2019-03-20T10:32:34.153Z,13.60
2019-03-20T10:36:41.473Z,14.10
2019-03-20T10:40:51.126Z,15.30
2019-03-20T10:44:56.326Z,13.50
2019-03-20T10:49:02.672Z,14.80
2019-03-20T10:53:10.527Z,14.10
2019-03-20T10:57:16.553Z,14.70
2019-03-20T11:01:25.391Z,15.40
2019-03-20T11:05:32.694Z,14.70
2019-03-20T11:09:38.015Z,14.60
2019-03-20T11:13:46.062Z,14.80
2019-03-20T11:17:53.842Z,17.40
2019-03-20T11:22:00.449Z,17.80
2019-03-20T11:26:06.148Z,15.60
2019-03-20T11:30:24.180Z,14.40
2019-03-20T11:34:30.131Z,13.90
2019-03-20T11:38:35.712Z,12.80
2019-03-20T11:42:43.579Z,11.60
2019-03-20T11:46:54.500Z,11.60
2019-03-20T11:51:02.268Z,16.00
2019-03-20T11:55:09.898Z,18.50
2019-03-20T11:59:15.929Z,18.40
2019-03-20T12:03:22.205Z,15.60
2019-03-20T12:07:30.560Z,15.20
2019-03-20T12:11:45.694Z,15.30
2019-03-20T12:15:51.725Z,17.60
2019-03-20T12:19:59.735Z,20.30
2019-03-20T12:24:06.665Z,20.30
2019-03-20T12:28:13.727Z,19.10
2019-03-20T12:32:23.028Z,17.50
2019-03-20T12:36:29.576Z,19.10
2019-03-20T12:40:40.799Z,20.80
2019-03-20T12:44:49.140Z,21.70
2019-03-20T12:48:54.994Z,22.20
2019-03-20T12:53:03.825Z,20.70
2019-03-20T12:57:13.371Z,19.40
2019-03-20T13:01:21.327Z,19.50
2019-03-20T13:05:30.557Z,21.30
2019-03-20T13:09:36.386Z,18.50
2019-03-20T13:13:43.967Z,19.20
2019-03-20T13:17:51.273Z,19.20
2019-03-20T13:21:57.798Z,20.10
2019-03-20T13:26:04.686Z,19.60
2019-03-20T13:30:28.911Z,20.60
2019-03-20T13:34:41.087Z,21.90
2019-03-20T13:38:47.527Z,22.20
2019-03-20T13:42:52.859Z,22.70
2019-03-20T13:46:58.573Z,20.50
2019-03-20T13:51:04.625Z,17.10
2019-03-20T13:55:11.725Z,14.90
2019-03-20T13:59:19.434Z,16.20
2019-03-20T14:03:26.673Z,17.40
2019-03-20T14:07:35.072Z,18.90
2019-03-20T14:11:40.700Z,22.50
2019-03-20T14:15:46.741Z,21.60
2019-03-20T14:20:13.756Z,20.50
2019-03-20T14:24:20.817Z,21.00
2019-03-20T14:28:30.603Z,21.00
2019-03-20T14:32:38.936Z,20.10
2019-03-20T14:36:47.823Z,16.90
2019-03-20T14:40:59.449Z,17.30
2019-03-20T14:45:11.126Z,19.80
2019-03-20T14:49:17.167Z,18.80
2019-03-20T14:53:24.943Z,19.20
2019-03-20T14:57:31.731Z,17.60
2019-03-20T15:01:40.469Z,15.30
2019-03-20T15:05:45.967Z,13.80
2019-03-20T15:09:53.267Z,12.20
2019-03-20T15:14:05.273Z,12.10
2019-03-20T15:18:15.282Z,12.00
2019-03-20T15:22:25.855Z,11.50
2019-03-20T15:26:33.644Z,10.90
2019-03-20T15:30:41.198Z,10.50
2019-03-20T15:34:53.616Z,10.50
2019-03-20T15:39:10.292Z,10.10
2019-03-20T15:43:16.542Z,9.90
2019-03-20T15:47:23.614Z,9.50
2019-03-20T15:51:31.040Z,9.40
2019-03-20T15:55:41.667Z,9.30
2019-03-20T15:59:48.072Z,9.10
2019-03-20T16:04:00.214Z,8.90
2019-03-20T16:08:07.498Z,8.90
2019-03-20T16:12:13.590Z,8.90
2019-03-20T16:16:22.158Z,8.70
2019-03-20T16:20:28.518Z,8.60
2019-03-20T16:24:36.527Z,8.40
2019-03-20T16:28:43.541Z,8.30
2019-03-20T16:32:52.855Z,8.00
2019-03-20T16:36:59.107Z,7.80
2019-03-20T16:41:05.704Z,7.60
2019-03-20T16:45:17.051Z,7.30
2019-03-20T16:49:24.669Z,7.00
2019-03-20T16:53:30.482Z,6.70
2019-03-20T16:57:35.929Z,6.50
2019-03-20T17:01:42.851Z,6.20
2019-03-20T17:05:49.943Z,5.90
2019-03-20T17:09:55.519Z,5.60
2019-03-20T17:14:05.233Z,5.40
2019-03-20T17:18:13.095Z,5.20
2019-03-20T17:22:19.095Z,5.00
2019-03-20T17:26:25.879Z,4.70
2019-03-20T17:30:37.538Z,4.50
2019-03-20T17:34:42.928Z,4.30
2019-03-20T17:38:48.168Z,4.10
2019-03-20T17:42:55.062Z,3.90
2019-03-20T17:47:00.327Z,3.80
2019-03-20T17:51:06.880Z,3.70
2019-03-20T17:55:14.372Z,3.50
2019-03-20T17:59:21.669Z,3.30
2019-03-20T18:03:29.849Z,3.20
2019-03-20T18:07:38.256Z,3.00
2019-03-20T18:11:47.637Z,2.80
2019-03-20T18:15:53.569Z,2.70
2019-03-20T18:20:01.580Z,2.60
2019-03-20T18:24:09.086Z,2.40
2019-03-20T18:28:18.087Z,2.40
2019-03-20T18:32:25.136Z,2.20
2019-03-20T18:36:35.541Z,2.10
2019-03-20T18:40:42.460Z,1.90
2019-03-20T18:44:48.548Z,1.80
2019-03-20T18:48:55.923Z,1.70
2019-03-20T18:53:00.892Z,1.60
2019-03-20T18:57:08.378Z,1.50
2019-03-20T19:01:15.216Z,1.40
2019-03-20T19:05:27.376Z,1.40
2019-03-20T19:09:32.884Z,1.30
2019-03-20T19:13:39.384Z,1.20
2019-03-20T19:17:47.258Z,1.10
2019-03-20T19:22:01.298Z,1.10
2019-03-20T19:26:07.510Z,1.00
2019-03-20T19:30:16.477Z,0.90
2019-03-20T19:34:22.225Z,0.80
2019-03-20T19:38:34.961Z,0.70
2019-03-20T19:42:40.607Z,0.70
2019-03-20T19:46:48.103Z,0.60
2019-03-20T19:50:56.131Z,0.50
2019-03-20T19:55:03.073Z,0.40
2019-03-20T19:59:08.990Z,0.30
2019-03-20T20:03:18.036Z,0.30
2019-03-20T20:07:29.685Z,0.20
2019-03-20T20:11:36.847Z,0.10
2019-03-20T20:15:46.935Z,0.10
2019-03-20T20:19:52.285Z,0.10
2019-03-20T20:23:58.429Z,0.00
2019-03-20T20:28:04.390Z,0.00
2019-03-20T20:32:09.486Z,-0.10
2019-03-20T20:36:14.418Z,-0.20
2019-03-20T20:40:19.437Z,-0.20
2019-03-20T20:44:24.355Z,-0.30
2019-03-20T20:48:30.367Z,-0.30
2019-03-20T20:52:35.513Z,-0.40
2019-03-20T20:56:40.626Z,-0.50
2019-03-20T21:00:46.428Z,-0.50
2019-03-20T21:04:52.948Z,-0.50
2019-03-20T21:08:58.224Z,-0.60
2019-03-20T21:13:03.409Z,-0.60
2019-03-20T21:17:12.529Z,-0.70
2019-03-20T21:21:18.327Z,-0.70
2019-03-20T21:25:24.434Z,-0.70
2019-03-20T21:29:52.743Z,-0.70
2019-03-20T21:34:34.092Z,-0.80
2019-03-20T21:38:40.483Z,-1.10
2019-03-20T21:43:20.827Z,-0.90
2019-03-20T21:47:33.573Z,-1.30
2019-03-20T21:51:39.283Z,-1.00
2019-03-20T21:56:24.102Z,-1.20
2019-03-20T22:01:04.908Z,-0.90
2019-03-20T22:05:23.318Z,-1.00
2019-03-20T22:09:57.099Z,-1.10
2019-03-20T22:14:06.914Z,-1.10
2019-03-20T22:19:00.314Z,-1.20
2019-03-20T22:23:46.218Z,-1.20
2019-03-20T22:28:17.279Z,-1.30
2019-03-20T22:33:11.230Z,-1.30
2019-03-20T22:37:17.479Z,-1.30
2019-03-20T22:41:44.174Z,-1.50
2019-03-20T22:46:40.923Z,-1.50
2019-03-20T22:51:00.744Z,-1.40
2019-03-20T22:55:50.182Z,-1.30
2019-03-20T22:59:55.742Z,-1.50
2019-03-20T23:04:06.354Z,-1.50
2019-03-20T23:08:12.930Z,-1.60
2019-03-20T23:12:18.795Z,-1.80
2019-03-20T23:16:24.851Z,-1.60
2019-03-20T23:20:31.019Z,-1.90
2019-03-20T23:24:36.557Z,-1.70
2019-03-20T23:28:42.326Z,-1.80
2019-03-20T23:32:48.257Z,-1.80
2019-03-20T23:36:53.970Z,-1.90
2019-03-20T23:40:59.432Z,-1.70
2019-03-20T23:45:05.601Z,-1.90
2019-03-20T23:49:14.149Z,-1.90
2019-03-20T23:53:20.077Z,-2.00
2019-03-20T23:57:25.493Z,-1.90
